createdAt,value
2022-11-12T00:00:44.117Z,69.83
2022-11-12T00:03:09.879Z,69.51
2022-11-12T00:05:36.948Z,69.53
2022-11-12T00:08:03.231Z,69.72
2022-11-12T00:10:30.411Z,69.27
2022-11-12T00:12:59.286Z,69.09
2022-11-12T00:15:25.589Z,69.49
2022-11-12T00:17:51.199Z,69.25
2022-11-12T00:20:16.407Z,69.20
2022-11-12T00:22:42.426Z,68.81
2022-11-12T00:25:10.573Z,68.58
2022-11-12T00:27:37.154Z,68.44
2022-11-12T00:30:06.326Z,68.13
2022-11-12T00:32:31.597Z,67.80
2022-11-12T00:34:59.281Z,67.97
2022-11-12T00:37:29.581Z,67.78
2022-11-12T00:39:54.686Z,67.69
2022-11-12T00:42:20.060Z,67.29
2022-11-12T00:44:45.701Z,67.13
2022-11-12T00:47:13.675Z,67.31
2022-11-12T00:49:38.969Z,67.23
2022-11-12T00:52:06.659Z,67.44
2022-11-12T00:54:31.631Z,67.69
2022-11-12T00:56:57.389Z,67.61
2022-11-12T00:59:23.068Z,67.76
2022-11-12T01:01:48.191Z,68.00
2022-11-12T01:04:16.105Z,68.28
2022-11-12T01:06:43.884Z,68.60
2022-11-12T01:09:09.339Z,68.80
2022-11-12T01:11:34.659Z,68.68
2022-11-12T01:14:04.285Z,69.13
2022-11-12T01:16:33.454Z,68.98
2022-11-12T01:19:01.280Z,69.30
2022-11-12T01:21:34.461Z,69.36
2022-11-12T01:24:03.407Z,69.54
2022-11-12T01:26:30.440Z,69.29
2022-11-12T01:28:56.505Z,69.69
2022-11-12T01:31:25.575Z,70.19
2022-11-12T01:33:56.846Z,70.27
2022-11-12T01:36:22.982Z,70.06
2022-11-12T01:38:52.763Z,69.78
2022-11-12T01:41:22.609Z,69.99
2022-11-12T01:43:48.079Z,70.49
2022-11-12T01:46:23.721Z,70.40
2022-11-12T01:48:56.627Z,70.29
2022-11-12T01:51:25.814Z,69.60
2022-11-12T01:54:00.932Z,70.00
2022-11-12T01:56:31.286Z,70.37
2022-11-12T01:59:07.150Z,69.98
2022-11-12T02:01:32.388Z,69.75
2022-11-12T02:03:59.739Z,69.56
2022-11-12T02:06:25.876Z,69.81
2022-11-12T02:08:53.814Z,69.24
2022-11-12T02:11:23.316Z,68.89
2022-11-12T02:13:58.300Z,69.38
2022-11-12T02:16:24.281Z,69.13
2022-11-12T02:18:49.428Z,68.95
2022-11-12T02:21:14.602Z,68.72
2022-11-12T02:23:43.409Z,69.08
2022-11-12T02:26:08.929Z,69.50
2022-11-12T02:28:36.558Z,68.89
2022-11-12T02:31:02.930Z,68.77
2022-11-12T02:33:28.443Z,69.04
2022-11-12T02:35:53.957Z,68.66
2022-11-12T02:38:19.876Z,68.74
2022-11-12T02:40:48.351Z,69.11
2022-11-12T02:43:13.885Z,69.07
2022-11-12T02:45:39.741Z,68.69
2022-11-12T02:48:06.353Z,68.24
2022-11-12T02:50:31.512Z,68.72
2022-11-12T02:52:57.762Z,68.11
2022-11-12T02:55:22.998Z,68.28
2022-11-12T02:57:50.929Z,68.14
2022-11-12T03:00:18.475Z,68.41
2022-11-12T03:02:43.572Z,68.46
2022-11-12T03:05:09.299Z,67.83
2022-11-12T03:07:35.263Z,68.41
2022-11-12T03:10:00.898Z,67.99
2022-11-12T03:12:28.148Z,68.05
2022-11-12T03:14:56.949Z,68.68
2022-11-12T03:17:22.143Z,68.71
2022-11-12T03:19:47.381Z,68.89
2022-11-12T03:22:13.517Z,68.66
2022-11-12T03:24:38.541Z,69.12
2022-11-12T03:27:03.876Z,69.33
2022-11-12T03:29:30.063Z,68.84
2022-11-12T03:31:58.049Z,69.32
2022-11-12T03:34:23.167Z,68.96
2022-11-12T03:36:49.304Z,69.00
2022-11-12T03:39:14.246Z,69.40
2022-11-12T03:41:39.482Z,69.38
2022-11-12T03:44:07.475Z,69.05
2022-11-12T03:46:32.862Z,68.58
2022-11-12T03:49:03.343Z,69.46
2022-11-12T03:51:29.515Z,68.45
2022-11-12T03:53:54.454Z,69.08
2022-11-12T03:56:19.770Z,68.86
2022-11-12T03:58:45.580Z,68.19
2022-11-12T04:01:10.786Z,68.25
2022-11-12T04:03:36.480Z,68.52
2022-11-12T04:06:36.803Z,68.11
2022-11-12T04:09:03.650Z,68.31
2022-11-12T04:11:29.620Z,67.95
2022-11-12T04:13:54.741Z,67.88
2022-11-12T04:16:46.953Z,68.38
2022-11-12T04:19:32.412Z,67.88
2022-11-12T04:22:06.396Z,69.10
2022-11-12T04:24:51.611Z,68.29
2022-11-12T04:27:20.153Z,68.83
2022-11-12T04:30:03.993Z,68.83
2022-11-12T04:32:29.686Z,68.06
2022-11-12T04:34:56.694Z,68.13
2022-11-12T04:37:26.540Z,68.63
2022-11-12T04:39:51.521Z,68.82
2022-11-12T04:42:34.810Z,68.71
2022-11-12T04:45:04.137Z,68.10
2022-11-12T04:47:32.391Z,68.06
2022-11-12T04:49:57.524Z,68.57
2022-11-12T04:52:25.505Z,69.17
2022-11-12T04:54:51.872Z,68.79
2022-11-12T04:57:17.445Z,69.07
2022-11-12T04:59:42.630Z,68.59
2022-11-12T05:02:09.365Z,68.22
2022-11-12T05:04:34.571Z,68.16
2022-11-12T05:07:00.504Z,67.80
2022-11-12T05:09:32.598Z,68.11
2022-11-12T05:11:58.609Z,68.57
2022-11-12T05:14:23.704Z,68.56
2022-11-12T05:16:49.923Z,68.54
2022-11-12T05:19:14.687Z,68.67
2022-11-12T05:21:55.617Z,68.59
2022-11-12T05:24:40.646Z,68.43
2022-11-12T05:27:15.870Z,68.15
2022-11-12T05:29:42.093Z,67.60
2022-11-12T05:32:11.982Z,68.17
2022-11-12T05:34:37.539Z,68.56
2022-11-12T05:37:06.561Z,67.82
2022-11-12T05:39:31.976Z,68.37
2022-11-12T05:42:12.474Z,67.72
2022-11-12T05:44:42.393Z,67.79
2022-11-12T05:47:08.514Z,68.09
2022-11-12T05:49:34.027Z,67.80
2022-11-12T05:52:00.499Z,68.26
2022-11-12T05:54:27.097Z,67.79
2022-11-12T05:56:52.147Z,67.97
2022-11-12T05:59:18.220Z,67.32
2022-11-12T06:01:46.841Z,68.34
2022-11-12T06:04:11.926Z,67.95
2022-11-12T06:06:37.972Z,67.65
2022-11-12T06:09:03.650Z,68.23
2022-11-12T06:11:28.589Z,67.86
2022-11-12T06:13:54.643Z,67.16
2022-11-12T06:16:19.678Z,67.96
2022-11-12T06:18:48.052Z,68.09
2022-11-12T06:21:25.028Z,67.02
2022-11-12T06:23:54.353Z,67.37
2022-11-12T06:26:21.728Z,67.80
2022-11-12T06:28:46.847Z,67.02
2022-11-12T06:31:12.016Z,67.44
2022-11-12T06:33:38.557Z,67.43
2022-11-12T06:36:09.246Z,66.99
2022-11-12T06:38:35.048Z,66.55
2022-11-12T06:41:01.150Z,66.83
2022-11-12T06:43:27.109Z,66.21
2022-11-12T06:45:52.734Z,67.33
2022-11-12T06:48:18.511Z,66.29
2022-11-12T06:50:43.491Z,66.57
2022-11-12T06:53:12.307Z,66.79
2022-11-12T06:55:38.579Z,66.37
2022-11-12T06:58:03.571Z,66.50
2022-11-12T07:00:29.469Z,66.81
2022-11-12T07:02:55.219Z,66.94
2022-11-12T07:05:20.598Z,66.97
2022-11-12T07:07:45.776Z,66.77
2022-11-12T07:10:22.230Z,66.83
2022-11-12T07:12:53.033Z,66.06
2022-11-12T07:15:19.921Z,66.25
2022-11-12T07:17:48.798Z,66.31
2022-11-12T07:20:15.584Z,66.19
2022-11-12T07:22:41.309Z,66.89
2022-11-12T07:25:09.504Z,66.63
2022-11-12T07:27:37.745Z,66.56
2022-11-12T07:30:05.095Z,66.35
2022-11-12T07:32:30.486Z,66.69
2022-11-12T07:34:55.602Z,66.56
2022-11-12T07:37:21.443Z,66.46
2022-11-12T07:39:46.655Z,66.38
2022-11-12T07:42:13.357Z,66.08
2022-11-12T07:44:42.387Z,66.11
2022-11-12T07:47:09.027Z,66.07
2022-11-12T07:49:33.879Z,66.11
2022-11-12T07:51:59.875Z,66.20
2022-11-12T07:54:25.175Z,65.97
2022-11-12T07:56:50.597Z,65.47
2022-11-12T07:59:16.360Z,66.18
2022-11-12T08:01:45.632Z,65.49
2022-11-12T08:04:14.262Z,65.27
2022-11-12T08:06:41.540Z,65.33
2022-11-12T08:09:12.291Z,65.28
2022-11-12T08:11:38.743Z,64.76
2022-11-12T08:14:06.813Z,64.29
2022-11-12T08:16:33.234Z,64.20
2022-11-12T08:19:01.339Z,63.91
2022-11-12T08:21:28.513Z,63.42
2022-11-12T08:23:53.949Z,63.48
2022-11-12T08:26:23.124Z,63.60
2022-11-12T08:28:50.229Z,63.46
2022-11-12T08:31:18.845Z,63.56
2022-11-12T08:33:45.646Z,63.54
2022-11-12T08:36:17.962Z,63.29
2022-11-12T08:38:44.568Z,63.28
2022-11-12T08:41:12.456Z,63.12
2022-11-12T08:43:39.822Z,63.08
2022-11-12T08:46:06.516Z,62.63
2022-11-12T08:48:34.233Z,62.75
2022-11-12T08:51:00.823Z,62.85
2022-11-12T08:53:29.974Z,62.52
2022-11-12T08:55:57.130Z,62.45
2022-11-12T08:58:23.239Z,62.31
2022-11-12T09:00:51.053Z,61.71
2022-11-12T09:03:19.507Z,61.81
2022-11-12T09:05:46.135Z,61.86
2022-11-12T09:08:14.935Z,61.60
2022-11-12T09:10:44.804Z,61.25
2022-11-12T09:13:10.895Z,62.03
2022-11-12T09:15:38.389Z,61.55
2022-11-12T09:18:08.069Z,60.90
2022-11-12T09:20:35.491Z,60.79
2022-11-12T09:23:03.356Z,60.16
2022-11-12T09:25:28.543Z,60.52
2022-11-12T09:27:57.358Z,60.06
2022-11-12T09:30:22.642Z,60.85
2022-11-12T09:32:48.217Z,60.27
2022-11-12T09:35:14.225Z,60.04
2022-11-12T09:37:41.506Z,60.24
2022-11-12T09:40:12.879Z,59.83
2022-11-12T09:42:40.539Z,59.38
2022-11-12T09:45:22.350Z,59.73
2022-11-12T09:47:57.071Z,59.31
2022-11-12T09:50:30.333Z,59.63
2022-11-12T09:53:09.545Z,59.00
2022-11-12T09:55:41.337Z,58.98
2022-11-12T09:58:14.713Z,59.34
2022-11-12T10:00:46.671Z,59.74
2022-11-12T10:03:29.508Z,59.21
2022-11-12T10:06:10.495Z,58.86
2022-11-12T10:08:51.622Z,59.67
2022-11-12T10:12:06.218Z,59.58
2022-11-12T10:14:55.533Z,59.05
2022-11-12T10:17:37.889Z,58.47
2022-11-12T10:20:21.096Z,58.58
2022-11-12T10:23:09.972Z,59.04
2022-11-12T10:25:38.502Z,58.14
2022-11-12T10:28:15.785Z,58.24
2022-11-12T10:30:46.215Z,58.12
2022-11-12T10:33:18.355Z,58.51
2022-11-12T10:35:44.469Z,58.21
2022-11-12T10:38:20.357Z,58.87
2022-11-12T10:40:46.985Z,58.80
2022-11-12T10:43:26.634Z,59.29
2022-11-12T10:45:54.467Z,59.06
2022-11-12T10:48:34.497Z,58.30
2022-11-12T10:51:04.737Z,58.52
2022-11-12T10:53:37.175Z,59.10
2022-11-12T10:56:06.913Z,59.24
2022-11-12T10:58:32.035Z,58.13
2022-11-12T11:01:07.623Z,58.30
2022-11-12T11:03:40.815Z,58.49
2022-11-12T11:06:10.636Z,58.79
2022-11-12T11:08:44.557Z,59.07
2022-11-12T11:11:23.262Z,58.19
2022-11-12T11:13:55.526Z,58.29
2022-11-12T11:16:24.152Z,58.99
2022-11-12T11:18:57.463Z,58.90
2022-11-12T11:21:58.707Z,58.77
2022-11-12T11:24:42.561Z,58.27
2022-11-12T11:27:29.578Z,57.92
2022-11-12T11:30:13.120Z,57.51
2022-11-12T11:33:16.935Z,57.93
2022-11-12T11:36:02.816Z,58.14
2022-11-12T11:38:41.417Z,57.88
2022-11-12T11:41:48.304Z,57.00
2022-11-12T11:44:31.918Z,56.16
2022-11-12T11:47:18.407Z,57.38
2022-11-12T11:50:20.822Z,56.17
2022-11-12T11:53:06.408Z,55.54
2022-11-12T11:55:41.900Z,56.02
2022-11-12T11:58:28.615Z,54.51
2022-11-12T12:01:11.123Z,54.73
2022-11-12T12:04:03.687Z,55.20
2022-11-12T12:06:32.297Z,54.06
2022-11-12T12:09:23.669Z,55.09
2022-11-12T12:12:03.710Z,54.99
2022-11-12T12:14:59.122Z,54.35
2022-11-12T12:17:44.896Z,54.50
2022-11-12T12:20:24.575Z,54.09
2022-11-12T12:22:54.696Z,53.45
2022-11-12T12:25:30.778Z,54.14
2022-11-12T12:28:05.919Z,53.48
2022-11-12T12:30:38.790Z,53.26
2022-11-12T12:33:20.679Z,53.28
2022-11-12T12:35:57.211Z,53.66
2022-11-12T12:38:33.098Z,53.65
2022-11-12T12:41:13.041Z,53.16
2022-11-12T12:43:47.197Z,52.62
2022-11-12T12:46:17.288Z,53.69
2022-11-12T12:48:47.320Z,53.66
2022-11-12T12:51:14.136Z,53.40
2022-11-12T12:53:40.815Z,53.67
2022-11-12T12:56:50.395Z,53.62
2022-11-12T12:59:26.501Z,53.26
2022-11-12T13:02:01.348Z,53.16
2022-11-12T13:04:55.771Z,52.76
2022-11-12T13:07:21.642Z,53.49
2022-11-12T13:09:49.627Z,53.00
2022-11-12T13:12:26.911Z,52.13
2022-11-12T13:15:15.651Z,52.40
2022-11-12T13:18:01.210Z,52.71
2022-11-12T13:20:41.820Z,52.20
2022-11-12T13:24:11.170Z,52.69
2022-11-12T13:26:54.274Z,52.58
2022-11-12T13:29:48.352Z,53.01
2022-11-12T13:32:38.128Z,52.39
2022-11-12T13:35:31.336Z,52.69
2022-11-12T13:38:03.603Z,51.93
2022-11-12T13:40:43.611Z,52.44
2022-11-12T13:43:34.923Z,52.43
2022-11-12T13:46:28.326Z,52.08
2022-11-12T13:49:03.910Z,52.09
2022-11-12T13:51:41.632Z,51.74
2022-11-12T13:54:32.047Z,51.90
2022-11-12T13:56:57.676Z,51.85
2022-11-12T13:59:26.684Z,51.95
2022-11-12T14:01:55.674Z,51.57
2022-11-12T14:04:25.560Z,52.21
2022-11-12T14:06:55.851Z,52.12
2022-11-12T14:10:01.127Z,52.31
2022-11-12T14:12:59.721Z,52.01
2022-11-12T14:15:47.596Z,52.30
2022-11-12T14:18:35.175Z,52.37
2022-11-12T14:21:00.929Z,52.60
2022-11-12T14:23:29.940Z,52.83
2022-11-12T14:25:57.976Z,52.27
2022-11-12T14:28:31.373Z,52.47
2022-11-12T14:30:57.480Z,52.52
2022-11-12T14:33:27.546Z,52.18
2022-11-12T14:35:56.234Z,52.97
2022-11-12T14:38:27.164Z,53.16
2022-11-12T14:40:57.764Z,52.86
2022-11-12T14:43:46.534Z,52.76
2022-11-12T14:46:27.962Z,53.30
2022-11-12T14:49:04.219Z,52.81
2022-11-12T14:51:35.144Z,53.10
2022-11-12T14:54:08.035Z,53.90
2022-11-12T14:56:38.518Z,53.60
2022-11-12T14:59:06.354Z,53.80
2022-11-12T15:04:27.088Z,53.38
2022-11-12T15:06:58.618Z,54.22
2022-11-12T15:09:38.002Z,54.02
2022-11-12T15:12:04.744Z,54.30
2022-11-12T15:14:30.939Z,54.56
2022-11-12T15:16:57.133Z,54.89
2022-11-12T15:19:27.812Z,54.62
2022-11-12T15:21:56.959Z,54.97
2022-11-12T15:24:29.819Z,54.76
2022-11-12T15:26:58.134Z,55.12
2022-11-12T15:29:32.392Z,55.01
2022-11-12T15:32:03.682Z,55.09
2022-11-12T15:34:37.061Z,55.43
2022-11-12T15:37:09.099Z,56.03
2022-11-12T15:39:43.034Z,55.23
2022-11-12T15:42:20.369Z,55.77
2022-11-12T15:44:45.987Z,56.23
2022-11-12T15:47:23.077Z,56.03
2022-11-12T15:49:57.203Z,57.04
2022-11-12T15:52:24.234Z,56.17
2022-11-12T15:54:49.508Z,56.72
2022-11-12T15:57:19.957Z,56.62
2022-11-12T15:59:48.811Z,56.69
2022-11-12T16:02:16.477Z,57.09
2022-11-12T16:04:42.312Z,56.66
2022-11-12T16:07:13.039Z,57.42
2022-11-12T16:09:39.187Z,57.78
2022-11-12T16:12:06.677Z,56.81
2022-11-12T16:14:32.743Z,57.87
2022-11-12T16:16:58.373Z,57.98
2022-11-12T16:19:23.846Z,57.88
2022-11-12T16:21:49.932Z,57.95
2022-11-12T16:24:18.206Z,57.02
2022-11-12T16:26:44.072Z,58.43
2022-11-12T16:29:16.646Z,58.18
2022-11-12T16:31:44.444Z,57.71
2022-11-12T16:34:10.722Z,58.67
2022-11-12T16:36:35.920Z,58.35
2022-11-12T16:39:00.762Z,58.86
2022-11-12T16:41:31.405Z,57.89
2022-11-12T16:43:56.626Z,58.40
2022-11-12T16:46:31.384Z,58.07
2022-11-12T16:48:57.764Z,58.92
2022-11-12T16:51:25.374Z,59.00
2022-11-12T16:53:50.713Z,58.10
2022-11-12T16:56:22.303Z,58.45
2022-11-12T16:58:52.299Z,58.80
2022-11-12T17:01:27.563Z,58.33
2022-11-12T17:03:53.338Z,59.23
2022-11-12T17:06:19.469Z,59.10
2022-11-12T17:08:45.057Z,59.02
2022-11-12T17:11:12.496Z,58.83
2022-11-12T17:13:39.567Z,59.68
2022-11-12T17:16:08.619Z,59.06
2022-11-12T17:18:34.228Z,59.14
2022-11-12T17:21:00.385Z,59.47
2022-11-12T17:23:27.479Z,59.81
2022-11-12T17:26:03.960Z,60.97
2022-11-12T17:28:32.810Z,60.99
2022-11-12T17:31:11.094Z,62.16
2022-11-12T17:33:42.163Z,62.95
2022-11-12T17:36:11.847Z,63.49
2022-11-12T17:38:38.489Z,64.04
2022-11-12T17:41:03.712Z,64.93
2022-11-12T17:43:29.911Z,65.84
2022-11-12T17:45:58.593Z,66.20
2022-11-12T17:48:27.777Z,67.14
2022-11-12T17:50:54.324Z,67.32
2022-11-12T17:53:20.964Z,67.87
2022-11-12T17:55:45.963Z,67.96
2022-11-12T17:58:12.103Z,68.27
2022-11-12T18:00:39.457Z,68.83
2022-11-12T18:03:07.210Z,69.37
2022-11-12T18:05:35.711Z,69.46
2022-11-12T18:08:03.359Z,69.21
2022-11-12T18:10:29.793Z,69.19
2022-11-12T18:13:03.697Z,69.59
2022-11-12T18:15:30.091Z,69.85
2022-11-12T18:18:09.419Z,69.68
2022-11-12T18:20:39.610Z,70.53
2022-11-12T18:23:06.340Z,70.38
2022-11-12T18:25:38.417Z,70.58
2022-11-12T18:28:06.686Z,70.62
2022-11-12T18:30:32.315Z,70.79
2022-11-12T18:32:57.505Z,71.11
2022-11-12T18:35:27.254Z,71.09
2022-11-12T18:37:57.679Z,70.75
2022-11-12T18:40:24.979Z,71.42
2022-11-12T18:42:50.784Z,71.27
2022-11-12T18:45:16.728Z,71.33
2022-11-12T18:47:42.973Z,71.12
2022-11-12T18:50:09.404Z,71.23
2022-11-12T18:52:35.154Z,71.68
2022-11-12T18:55:04.222Z,72.24
2022-11-12T18:57:29.501Z,71.56
2022-11-12T18:59:55.213Z,72.68
2022-11-12T19:02:21.820Z,72.61
2022-11-12T19:04:47.720Z,72.40
2022-11-12T19:07:12.943Z,73.80
2022-11-12T19:09:39.197Z,73.43
2022-11-12T19:12:07.294Z,73.48
2022-11-12T19:14:33.792Z,72.93
2022-11-12T19:16:59.437Z,72.57
2022-11-12T19:19:24.623Z,72.71
2022-11-12T19:21:49.784Z,72.81
2022-11-12T19:24:15.777Z,72.72
2022-11-12T19:26:41.553Z,73.03
2022-11-12T19:29:11.237Z,73.46
2022-11-12T19:31:37.522Z,73.39
2022-11-12T19:34:06.422Z,73.43
2022-11-12T19:36:34.669Z,73.81
2022-11-12T19:39:03.587Z,73.93
2022-11-12T19:41:32.142Z,73.61
2022-11-12T19:43:57.387Z,73.96
2022-11-12T19:46:26.566Z,73.42
2022-11-12T19:48:52.234Z,73.47
2022-11-12T19:51:17.792Z,73.61
2022-11-12T19:53:46.065Z,73.16
2022-11-12T19:56:11.310Z,73.12
2022-11-12T19:58:37.232Z,72.88
2022-11-12T20:01:07.564Z,72.68
2022-11-12T20:03:37.351Z,73.33
2022-11-12T20:06:05.974Z,73.02
2022-11-12T20:08:31.405Z,72.21
2022-11-12T20:10:56.862Z,72.27
2022-11-12T20:13:22.965Z,72.10
2022-11-12T20:15:48.002Z,72.12
2022-11-12T20:18:13.208Z,71.94
2022-11-12T20:20:41.888Z,72.50
2022-11-12T20:23:11.737Z,72.32
2022-11-12T20:25:38.649Z,72.47
2022-11-12T20:28:06.327Z,72.39
2022-11-12T20:30:32.445Z,72.11
2022-11-12T20:32:57.755Z,72.06
2022-11-12T20:35:26.560Z,71.97
2022-11-12T20:37:54.427Z,72.04
2022-11-12T20:40:20.139Z,71.87
2022-11-12T20:42:46.053Z,71.71
2022-11-12T20:45:12.624Z,72.18
2022-11-12T20:47:37.804Z,71.88
2022-11-12T20:50:03.941Z,71.69
2022-11-12T20:52:29.492Z,71.65
2022-11-12T20:54:57.488Z,71.14
2022-11-12T20:57:23.379Z,71.73
2022-11-12T20:59:51.380Z,71.19
2022-11-12T21:02:17.484Z,71.18
2022-11-12T21:04:43.796Z,71.30
2022-11-12T21:07:09.213Z,70.96
2022-11-12T21:09:34.723Z,70.77
2022-11-12T21:12:06.405Z,70.58
2022-11-12T21:14:31.734Z,70.55
2022-11-12T21:16:57.242Z,70.25
2022-11-12T21:19:23.481Z,70.43
2022-11-12T21:21:49.118Z,70.23
2022-11-12T21:24:14.363Z,70.11
2022-11-12T21:26:40.746Z,70.01
2022-11-12T21:29:10.232Z,70.19
2022-11-12T21:31:35.459Z,70.27
2022-11-12T21:34:07.253Z,70.05
2022-11-12T21:36:34.439Z,69.94
2022-11-12T21:39:01.036Z,69.89
2022-11-12T21:41:32.215Z,70.17
2022-11-12T21:43:58.417Z,69.98
2022-11-12T21:46:30.037Z,69.73
2022-11-12T21:48:58.025Z,69.88
2022-11-12T21:51:27.136Z,70.14
2022-11-12T21:53:58.579Z,69.76
2022-11-12T21:56:25.471Z,69.98
2022-11-12T21:58:50.914Z,69.99
2022-11-12T22:01:22.836Z,69.73
2022-11-12T22:03:54.039Z,70.15
2022-11-12T22:06:20.854Z,69.84
2022-11-12T22:08:46.793Z,70.08
2022-11-12T22:11:15.522Z,69.78
2022-11-12T22:13:42.633Z,69.79
2022-11-12T22:16:11.819Z,69.92
2022-11-12T22:18:39.459Z,70.03
2022-11-12T22:21:10.307Z,69.94
2022-11-12T22:23:36.818Z,69.89
2022-11-12T22:26:03.729Z,69.45
2022-11-12T22:28:29.859Z,69.21
2022-11-12T22:30:56.531Z,69.66
2022-11-12T22:33:22.713Z,69.51
2022-11-12T22:35:47.947Z,69.58
2022-11-12T22:38:16.533Z,69.59
2022-11-12T22:40:42.804Z,68.91
2022-11-12T22:43:08.465Z,68.99
2022-11-12T22:45:33.976Z,68.74
2022-11-12T22:48:05.837Z,68.80
2022-11-12T22:50:34.306Z,69.18
2022-11-12T22:53:02.864Z,69.12
2022-11-12T22:55:30.522Z,68.78
2022-11-12T22:57:55.687Z,68.62
2022-11-12T23:00:32.505Z,68.62
2022-11-12T23:02:58.222Z,68.37
2022-11-12T23:05:25.081Z,68.99
2022-11-12T23:07:50.511Z,68.91
2022-11-12T23:10:15.964Z,68.47
2022-11-12T23:12:44.993Z,68.96
2022-11-12T23:15:11.829Z,68.99
2022-11-12T23:17:37.055Z,68.55
2022-11-12T23:20:03.358Z,68.66
2022-11-12T23:22:28.940Z,68.50
2022-11-12T23:24:54.076Z,68.35
2022-11-12T23:27:20.125Z,68.07
2022-11-12T23:29:48.432Z,68.43
2022-11-12T23:32:13.597Z,68.40
2022-11-12T23:34:39.523Z,68.45
2022-11-12T23:37:06.379Z,68.43
2022-11-12T23:39:31.322Z,68.76
2022-11-12T23:41:57.181Z,68.67
2022-11-12T23:44:22.490Z,68.72
2022-11-12T23:46:50.728Z,69.07
2022-11-12T23:49:16.839Z,69.10
2022-11-12T23:51:42.186Z,69.05
2022-11-12T23:54:09.054Z,69.13
2022-11-12T23:56:35.074Z,68.76
2022-11-12T23:59:00.274Z,68.87
